createdAt,value
2022-07-26T00:00:45.127Z,19.70
2022-07-26T00:03:17.473Z,19.67
2022-07-26T00:05:49.818Z,19.64
2022-07-26T00:08:22.424Z,19.62
2022-07-26T00:10:54.694Z,19.59
2022-07-26T00:13:30.118Z,19.57
2022-07-26T00:16:03.103Z,19.54
2022-07-26T00:18:35.783Z,19.53
2022-07-26T00:21:08.751Z,19.51
2022-07-26T00:23:41.297Z,19.50
2022-07-26T00:26:13.306Z,19.49
2022-07-26T00:28:45.637Z,19.48
2022-07-26T00:31:17.856Z,19.47
2022-07-26T00:33:50.680Z,19.46
2022-07-26T00:36:23.007Z,19.44
2022-07-26T00:38:56.742Z,19.42
2022-07-26T00:41:28.899Z,19.41
2022-07-26T00:44:01.836Z,19.39
2022-07-26T00:46:34.371Z,19.38
2022-07-26T00:49:07.088Z,19.37
2022-07-26T00:51:39.433Z,19.36
2022-07-26T00:54:11.829Z,19.35
2022-07-26T00:56:43.761Z,19.33
2022-07-26T00:59:17.864Z,19.30
2022-07-26T01:01:49.889Z,19.26
2022-07-26T01:04:22.322Z,19.22
2022-07-26T01:06:55.878Z,19.20
2022-07-26T01:09:28.174Z,19.18
2022-07-26T01:12:00.790Z,19.16
2022-07-26T01:14:32.817Z,19.13
2022-07-26T01:17:05.472Z,19.11
2022-07-26T01:19:37.460Z,19.09
2022-07-26T01:22:14.368Z,19.07
2022-07-26T01:24:48.664Z,19.04
2022-07-26T01:27:21.266Z,19.01
2022-07-26T01:29:53.751Z,19.00
2022-07-26T01:32:26.504Z,18.99
2022-07-26T01:34:58.471Z,18.99
2022-07-26T01:37:30.763Z,18.99
2022-07-26T01:40:07.246Z,18.98
2022-07-26T01:42:41.304Z,18.97
2022-07-26T01:45:14.745Z,18.97
2022-07-26T01:47:50.280Z,18.96
2022-07-26T01:50:22.327Z,18.95
2022-07-26T01:52:54.396Z,18.95
2022-07-26T01:55:26.779Z,18.95
2022-07-26T01:57:58.926Z,18.94
2022-07-26T02:00:32.014Z,18.92
2022-07-26T02:03:04.802Z,18.91
2022-07-26T02:05:37.353Z,18.90
2022-07-26T02:08:09.686Z,18.88
2022-07-26T02:11:00.585Z,18.87
2022-07-26T02:13:37.658Z,18.86
2022-07-26T02:16:13.578Z,18.85
2022-07-26T02:18:45.938Z,18.85
2022-07-26T02:21:18.764Z,18.85
2022-07-26T02:23:50.975Z,18.85
2022-07-26T02:26:23.469Z,18.85
2022-07-26T02:28:55.586Z,18.85
2022-07-26T02:31:32.373Z,18.85
2022-07-26T02:34:05.627Z,18.85
2022-07-26T02:36:39.929Z,18.85
2022-07-26T02:39:12.538Z,18.85
2022-07-26T02:41:45.154Z,18.84
2022-07-26T02:44:17.161Z,18.84
2022-07-26T02:46:49.480Z,18.83
2022-07-26T02:49:23.654Z,18.83
2022-07-26T02:51:56.330Z,18.83
2022-07-26T02:54:28.291Z,18.84
2022-07-26T02:57:00.767Z,18.84
2022-07-26T02:59:32.953Z,18.85
2022-07-26T03:02:05.422Z,18.85
2022-07-26T03:04:38.141Z,18.86
2022-07-26T03:07:10.427Z,18.87
2022-07-26T03:09:42.752Z,18.88
2022-07-26T03:12:14.940Z,18.90
2022-07-26T03:14:47.339Z,18.92
2022-07-26T03:17:21.000Z,18.94
2022-07-26T03:19:53.638Z,18.95
2022-07-26T03:22:26.238Z,18.98
2022-07-26T03:24:58.411Z,19.01
2022-07-26T03:27:30.611Z,19.07
2022-07-26T03:30:02.828Z,19.11
2022-07-26T03:32:35.133Z,19.17
2022-07-26T03:35:09.452Z,19.23
2022-07-26T03:37:45.675Z,19.30
2022-07-26T03:40:20.058Z,19.36
2022-07-26T03:42:52.768Z,19.42
2022-07-26T03:45:25.670Z,19.48
2022-07-26T03:47:57.827Z,19.54
2022-07-26T03:50:30.277Z,19.59
2022-07-26T03:53:03.083Z,19.65
2022-07-26T03:55:53.096Z,19.72
2022-07-26T03:58:25.263Z,19.87
2022-07-26T04:00:57.989Z,20.00
2022-07-26T04:03:30.224Z,20.06
2022-07-26T04:06:03.555Z,20.12
2022-07-26T04:08:38.050Z,20.17
2022-07-26T04:11:10.954Z,20.21
2022-07-26T04:13:42.978Z,20.27
2022-07-26T04:16:15.600Z,20.33
2022-07-26T04:18:47.694Z,20.40
2022-07-26T04:21:20.129Z,20.46
2022-07-26T04:23:52.878Z,20.54
2022-07-26T04:26:25.963Z,20.61
2022-07-26T04:29:01.107Z,20.66
2022-07-26T04:31:36.103Z,20.72
2022-07-26T04:34:10.673Z,20.76
2022-07-26T04:36:43.791Z,20.79
2022-07-26T04:39:24.550Z,20.81
2022-07-26T04:41:56.698Z,20.85
2022-07-26T04:44:29.074Z,20.89
2022-07-26T04:47:01.039Z,20.93
2022-07-26T04:49:33.172Z,20.95
2022-07-26T04:52:05.938Z,20.97
2022-07-26T04:54:38.156Z,21.01
2022-07-26T04:57:10.726Z,21.06
2022-07-26T04:59:43.531Z,21.16
2022-07-26T05:02:16.114Z,21.30
2022-07-26T05:04:48.511Z,21.54
2022-07-26T05:07:21.421Z,21.82
2022-07-26T05:09:54.099Z,22.08
2022-07-26T05:12:26.214Z,22.29
2022-07-26T05:14:58.463Z,22.44
2022-07-26T05:17:30.916Z,22.57
2022-07-26T05:20:03.690Z,22.72
2022-07-26T05:22:36.005Z,22.82
2022-07-26T05:25:10.438Z,22.92
2022-07-26T05:27:42.928Z,23.00
2022-07-26T05:30:15.819Z,23.10
2022-07-26T05:32:48.074Z,23.23
2022-07-26T05:35:20.208Z,23.35
2022-07-26T05:37:54.317Z,23.45
2022-07-26T05:40:26.623Z,23.53
2022-07-26T05:42:59.505Z,23.66
2022-07-26T05:45:32.067Z,23.80
2022-07-26T05:48:08.418Z,23.91
2022-07-26T05:50:40.514Z,24.03
2022-07-26T05:53:12.863Z,24.13
2022-07-26T05:55:45.233Z,24.24
2022-07-26T05:58:17.756Z,24.31
2022-07-26T06:00:49.812Z,24.35
2022-07-26T06:03:25.190Z,24.40
2022-07-26T06:05:59.225Z,24.40
2022-07-26T06:08:33.650Z,24.36
2022-07-26T06:11:05.848Z,24.36
2022-07-26T06:13:38.223Z,24.33
2022-07-26T06:16:11.531Z,24.28
2022-07-26T06:18:43.879Z,24.32
2022-07-26T06:21:15.939Z,24.44
2022-07-26T06:23:49.723Z,24.54
2022-07-26T06:26:24.330Z,24.65
2022-07-26T06:28:56.496Z,24.84
2022-07-26T06:31:28.924Z,24.89
2022-07-26T06:34:02.170Z,24.97
2022-07-26T06:36:34.247Z,25.05
2022-07-26T06:39:06.777Z,25.14
2022-07-26T06:41:38.792Z,25.23
2022-07-26T06:44:11.656Z,25.16
2022-07-26T06:46:44.130Z,25.12
2022-07-26T06:49:20.575Z,25.06
2022-07-26T06:51:58.151Z,25.03
2022-07-26T06:54:30.336Z,24.93
2022-07-26T06:57:04.723Z,24.82
2022-07-26T06:59:37.977Z,24.75
2022-07-26T07:02:09.980Z,24.67
2022-07-26T07:04:42.012Z,24.63
2022-07-26T07:07:14.022Z,24.51
2022-07-26T07:09:47.229Z,24.36
2022-07-26T07:12:19.374Z,24.23
2022-07-26T07:14:51.414Z,24.21
2022-07-26T07:17:23.704Z,24.31
2022-07-26T07:19:55.759Z,24.22
2022-07-26T07:22:29.165Z,24.10
2022-07-26T07:25:03.030Z,23.98
2022-07-26T07:27:36.096Z,23.78
2022-07-26T07:30:11.020Z,23.52
2022-07-26T07:32:43.923Z,23.31
2022-07-26T07:35:16.954Z,23.09
2022-07-26T07:37:52.714Z,22.88
2022-07-26T07:40:27.254Z,22.68
2022-07-26T07:43:03.124Z,22.49
2022-07-26T07:45:36.333Z,22.35
2022-07-26T07:48:09.789Z,22.29
2022-07-26T07:50:42.156Z,22.28
2022-07-26T07:53:14.315Z,22.19
2022-07-26T07:55:47.056Z,22.23
2022-07-26T07:58:21.027Z,22.33
2022-07-26T08:00:53.217Z,22.37
2022-07-26T08:03:25.594Z,22.29
2022-07-26T08:06:12.034Z,22.20
2022-07-26T08:08:44.451Z,22.09
2022-07-26T08:11:16.913Z,22.02
2022-07-26T08:13:49.191Z,21.93
2022-07-26T08:16:21.672Z,21.80
2022-07-26T08:19:08.696Z,21.80
2022-07-26T08:21:41.012Z,21.70
2022-07-26T08:24:14.767Z,21.52
2022-07-26T08:26:46.723Z,21.47
2022-07-26T08:29:19.120Z,21.53
2022-07-26T08:31:53.276Z,21.50
2022-07-26T08:34:26.300Z,21.30
2022-07-26T08:37:15.901Z,21.16
2022-07-26T08:39:50.622Z,21.05
2022-07-26T08:42:24.361Z,20.99
2022-07-26T08:44:57.845Z,20.96
2022-07-26T08:47:37.497Z,20.97
2022-07-26T08:50:12.757Z,21.06
2022-07-26T08:52:45.584Z,21.14
2022-07-26T08:55:21.307Z,21.09
2022-07-26T08:57:53.371Z,21.13
2022-07-26T09:00:29.850Z,21.18
2022-07-26T09:03:05.837Z,21.22
2022-07-26T09:05:40.295Z,21.33
2022-07-26T09:08:26.545Z,21.42
2022-07-26T09:11:00.159Z,21.43
2022-07-26T09:13:53.710Z,21.43
2022-07-26T09:16:26.072Z,21.45
2022-07-26T09:19:17.780Z,21.43
2022-07-26T09:21:50.697Z,21.45
2022-07-26T09:24:34.954Z,21.41
2022-07-26T09:27:09.665Z,21.38
2022-07-26T09:29:49.735Z,21.44
2022-07-26T09:32:23.460Z,21.54
2022-07-26T09:34:58.738Z,21.69
2022-07-26T09:37:39.636Z,21.74
2022-07-26T09:40:15.203Z,21.77
2022-07-26T09:43:00.265Z,21.92
2022-07-26T09:45:34.265Z,22.28
2022-07-26T09:48:07.787Z,22.61
2022-07-26T09:50:40.368Z,23.02
2022-07-26T09:53:14.372Z,23.18
2022-07-26T09:55:58.696Z,23.39
2022-07-26T09:58:30.991Z,23.43
2022-07-26T10:01:06.605Z,23.25
2022-07-26T10:03:38.913Z,23.19
2022-07-26T10:06:12.763Z,23.11
2022-07-26T10:08:46.352Z,22.94
2022-07-26T10:11:18.865Z,22.77
2022-07-26T10:13:51.146Z,22.64
2022-07-26T10:16:36.654Z,22.54
2022-07-26T10:19:10.586Z,22.51
2022-07-26T10:21:44.338Z,22.44
2022-07-26T10:24:28.823Z,22.28
2022-07-26T10:27:03.205Z,22.13
2022-07-26T10:29:37.421Z,22.02
2022-07-26T10:32:21.492Z,21.90
2022-07-26T10:34:53.873Z,21.81
2022-07-26T10:37:28.229Z,21.76
2022-07-26T10:40:22.731Z,21.70
2022-07-26T10:42:55.639Z,21.64
2022-07-26T10:45:29.216Z,21.58
2022-07-26T10:48:16.693Z,21.57
2022-07-26T10:50:50.707Z,21.50
2022-07-26T10:53:24.645Z,21.38
2022-07-26T10:56:01.503Z,21.19
2022-07-26T10:58:44.532Z,21.10
2022-07-26T11:01:16.516Z,21.00
2022-07-26T11:03:48.949Z,20.90
2022-07-26T11:06:22.183Z,20.85
2022-07-26T11:08:56.059Z,20.80
2022-07-26T11:11:33.351Z,20.75
2022-07-26T11:14:11.341Z,20.69
2022-07-26T11:16:45.718Z,20.58
2022-07-26T11:19:19.555Z,20.45
2022-07-26T11:21:57.264Z,20.33
2022-07-26T11:24:29.643Z,20.14
2022-07-26T11:27:06.234Z,19.91
2022-07-26T11:29:41.127Z,19.72
2022-07-26T11:32:22.034Z,19.48
2022-07-26T11:35:02.392Z,19.22
2022-07-26T11:37:35.031Z,19.07
2022-07-26T11:40:09.186Z,18.92
2022-07-26T11:42:41.393Z,18.81
2022-07-26T11:45:14.328Z,18.79
2022-07-26T11:47:46.343Z,18.78
2022-07-26T11:50:22.925Z,18.74
2022-07-26T11:52:56.355Z,18.66
2022-07-26T11:55:34.275Z,18.57
2022-07-26T11:58:08.750Z,18.56
2022-07-26T12:00:41.831Z,18.50
2022-07-26T12:03:13.848Z,18.48
2022-07-26T12:05:46.492Z,18.46
2022-07-26T12:08:18.841Z,18.46
2022-07-26T12:10:57.750Z,18.50
2022-07-26T12:13:39.853Z,18.56
2022-07-26T12:16:46.487Z,18.57
2022-07-26T12:19:32.025Z,18.52
2022-07-26T12:22:13.527Z,18.51
2022-07-26T12:24:48.696Z,18.57
2022-07-26T12:27:22.170Z,18.63
2022-07-26T12:29:56.418Z,18.73
2022-07-26T12:32:35.905Z,18.72
2022-07-26T12:35:11.182Z,18.73
2022-07-26T12:37:53.791Z,18.76
2022-07-26T12:40:27.639Z,18.80
2022-07-26T12:43:04.658Z,18.84
2022-07-26T12:45:38.641Z,18.91
2022-07-26T12:48:14.502Z,18.93
2022-07-26T12:50:46.989Z,18.98
2022-07-26T12:53:19.020Z,19.01
2022-07-26T12:55:51.250Z,19.02
2022-07-26T12:58:24.316Z,19.10
2022-07-26T13:00:57.832Z,19.15
2022-07-26T13:03:30.245Z,19.17
2022-07-26T13:06:03.525Z,19.18
2022-07-26T13:08:35.690Z,19.25
2022-07-26T13:11:08.467Z,19.31
2022-07-26T13:13:40.976Z,19.36
2022-07-26T13:16:13.054Z,19.41
2022-07-26T13:18:45.273Z,19.41
2022-07-26T13:21:19.866Z,19.35
2022-07-26T13:23:51.930Z,19.37
2022-07-26T13:26:26.273Z,19.40
2022-07-26T13:29:00.561Z,19.40
2022-07-26T13:31:34.794Z,19.49
2022-07-26T13:34:07.167Z,19.60
2022-07-26T13:36:39.656Z,19.63
2022-07-26T13:39:12.172Z,19.66
2022-07-26T13:41:46.770Z,19.76
2022-07-26T13:44:19.645Z,19.83
2022-07-26T13:46:52.490Z,19.90
2022-07-26T13:49:24.880Z,19.96
2022-07-26T13:52:00.118Z,20.10
2022-07-26T13:54:34.902Z,20.17
2022-07-26T13:57:07.993Z,20.20
2022-07-26T13:59:40.269Z,20.36
2022-07-26T14:02:12.334Z,20.42
2022-07-26T14:04:45.561Z,20.36
2022-07-26T14:07:19.295Z,20.28
2022-07-26T14:09:51.493Z,20.31
2022-07-26T14:12:24.199Z,20.18
2022-07-26T14:14:56.446Z,20.09
2022-07-26T14:17:28.711Z,19.99
2022-07-26T14:20:00.869Z,19.91
2022-07-26T14:22:34.102Z,19.89
2022-07-26T14:25:08.377Z,19.82
2022-07-26T14:27:41.011Z,19.79
2022-07-26T14:30:15.478Z,19.78
2022-07-26T14:32:48.347Z,19.78
2022-07-26T14:35:20.534Z,19.77
2022-07-26T14:37:52.900Z,19.70
2022-07-26T14:40:25.601Z,19.66
2022-07-26T14:42:58.243Z,19.65
2022-07-26T14:45:32.051Z,19.68
2022-07-26T14:48:05.934Z,19.65
2022-07-26T14:51:07.154Z,19.65
2022-07-26T14:53:31.263Z,19.61
2022-07-26T14:56:06.120Z,19.58
2022-07-26T14:58:39.355Z,19.61
2022-07-26T15:01:11.728Z,19.61
2022-07-26T15:03:43.887Z,19.64
2022-07-26T15:06:16.608Z,19.65
2022-07-26T15:08:49.751Z,19.64
2022-07-26T15:11:21.886Z,19.66
2022-07-26T15:13:54.602Z,19.69
2022-07-26T15:16:26.688Z,19.68
2022-07-26T15:19:00.429Z,19.71
2022-07-26T15:21:32.605Z,19.82
2022-07-26T15:24:05.268Z,19.92
2022-07-26T15:26:37.456Z,20.05
2022-07-26T15:29:10.114Z,20.17
2022-07-26T15:31:43.159Z,20.26
2022-07-26T15:34:15.929Z,20.34
2022-07-26T15:36:48.816Z,20.45
2022-07-26T15:39:21.083Z,20.56
2022-07-26T15:41:53.877Z,20.69
2022-07-26T15:44:28.872Z,20.82
2022-07-26T15:47:01.741Z,20.97
2022-07-26T15:49:40.476Z,21.15
2022-07-26T15:52:13.808Z,21.43
2022-07-26T15:54:46.482Z,21.76
2022-07-26T15:57:19.143Z,22.16
2022-07-26T15:59:51.736Z,22.70
2022-07-26T16:02:24.900Z,23.23
2022-07-26T16:04:57.717Z,23.62
2022-07-26T16:07:29.759Z,23.93
2022-07-26T16:10:02.896Z,24.14
2022-07-26T16:12:35.933Z,24.34
2022-07-26T16:15:11.091Z,24.51
2022-07-26T16:17:43.219Z,24.48
2022-07-26T16:20:16.519Z,24.19
2022-07-26T16:22:48.726Z,24.03
2022-07-26T16:25:20.905Z,23.87
2022-07-26T16:27:55.165Z,23.78
2022-07-26T16:30:27.605Z,23.69
2022-07-26T16:32:59.654Z,23.57
2022-07-26T16:35:32.080Z,23.39
2022-07-26T16:38:07.310Z,23.26
2022-07-26T16:40:39.886Z,23.05
2022-07-26T16:43:12.294Z,22.91
2022-07-26T16:45:46.057Z,22.82
2022-07-26T16:48:18.589Z,22.77
2022-07-26T16:50:50.821Z,22.72
2022-07-26T16:53:24.652Z,22.62
2022-07-26T16:55:57.002Z,22.50
2022-07-26T16:58:29.479Z,22.46
2022-07-26T17:01:03.388Z,22.51
2022-07-26T17:03:35.366Z,22.56
2022-07-26T17:06:07.848Z,22.61
2022-07-26T17:08:41.754Z,22.60
2022-07-26T17:11:13.981Z,22.53
2022-07-26T17:13:46.222Z,22.43
2022-07-26T17:16:24.237Z,22.32
2022-07-26T17:18:57.725Z,22.15
2022-07-26T17:21:29.991Z,21.98
2022-07-26T17:24:05.559Z,21.84
2022-07-26T17:26:38.216Z,21.68
2022-07-26T17:29:13.660Z,21.52
2022-07-26T17:31:46.854Z,21.40
2022-07-26T17:34:19.546Z,21.27
2022-07-26T17:37:00.019Z,21.17
2022-07-26T17:39:52.386Z,21.07
2022-07-26T17:42:26.022Z,20.96
2022-07-26T17:44:58.416Z,20.88
2022-07-26T17:47:31.032Z,20.84
2022-07-26T17:52:58.260Z,20.73
2022-07-26T17:55:32.439Z,20.70
2022-07-26T17:58:05.116Z,20.64
2022-07-26T18:00:39.364Z,20.56
2022-07-26T18:03:11.777Z,20.51
2022-07-26T18:05:44.558Z,20.44
2022-07-26T18:08:16.884Z,20.35
2022-07-26T18:10:51.224Z,20.25
2022-07-26T18:13:24.231Z,20.15
2022-07-26T18:15:57.082Z,20.00
2022-07-26T18:18:29.458Z,19.89
2022-07-26T18:21:03.897Z,19.80
2022-07-26T18:23:36.215Z,19.72
2022-07-26T18:26:09.425Z,19.65
2022-07-26T18:28:42.528Z,19.59
2022-07-26T18:31:21.667Z,19.50
2022-07-26T18:33:55.933Z,19.41
2022-07-26T18:36:28.587Z,19.33
2022-07-26T18:39:03.872Z,19.26
2022-07-26T18:41:36.111Z,19.17
2022-07-26T18:44:09.497Z,19.07
2022-07-26T18:46:44.960Z,18.96
2022-07-26T18:49:20.040Z,18.88
2022-07-26T18:51:53.410Z,18.80
2022-07-26T18:54:26.732Z,18.71
2022-07-26T18:56:58.875Z,18.62
2022-07-26T18:59:31.376Z,18.54
2022-07-26T19:02:04.091Z,18.46
2022-07-26T19:04:36.437Z,18.39
2022-07-26T19:07:11.417Z,18.32
2022-07-26T19:09:43.643Z,18.25
2022-07-26T19:12:15.746Z,18.19
2022-07-26T19:14:48.312Z,18.12
2022-07-26T19:17:22.882Z,18.06
2022-07-26T19:19:55.697Z,18.02
2022-07-26T19:22:30.538Z,17.96
2022-07-26T19:25:03.116Z,17.92
2022-07-26T19:27:35.254Z,17.86
2022-07-26T19:30:11.315Z,17.83
2022-07-26T19:32:43.565Z,17.77
2022-07-26T19:35:15.926Z,17.71
2022-07-26T19:37:48.684Z,17.66
2022-07-26T19:40:20.753Z,17.61
2022-07-26T19:42:53.187Z,17.56
2022-07-26T19:45:25.776Z,17.52
2022-07-26T19:47:58.162Z,17.48
2022-07-26T19:50:30.293Z,17.44
2022-07-26T19:53:02.712Z,17.40
2022-07-26T19:55:38.611Z,17.38
2022-07-26T19:58:11.261Z,17.35
2022-07-26T20:00:43.418Z,17.31
2022-07-26T20:03:17.065Z,17.29
2022-07-26T20:05:49.043Z,17.26
2022-07-26T20:08:21.237Z,17.23
2022-07-26T20:10:54.000Z,17.20
2022-07-26T20:13:26.208Z,17.16
2022-07-26T20:15:58.790Z,17.14
2022-07-26T20:18:31.552Z,17.10
2022-07-26T20:21:03.822Z,17.08
2022-07-26T20:23:36.959Z,17.04
2022-07-26T20:26:09.349Z,17.02
2022-07-26T20:28:42.109Z,16.99
2022-07-26T20:31:14.302Z,16.96
2022-07-26T20:33:46.551Z,16.93
2022-07-26T20:36:18.709Z,16.91
2022-07-26T20:38:51.752Z,16.88
2022-07-26T20:41:25.745Z,16.86
2022-07-26T20:43:58.036Z,16.84
2022-07-26T20:46:32.059Z,16.82
2022-07-26T20:49:06.940Z,16.80
2022-07-26T20:51:39.250Z,16.77
2022-07-26T20:54:12.313Z,16.75
2022-07-26T20:56:44.462Z,16.73
2022-07-26T20:59:17.095Z,16.71
2022-07-26T21:01:49.935Z,16.70
2022-07-26T21:04:22.247Z,16.69
2022-07-26T21:06:55.100Z,16.67
2022-07-26T21:09:30.566Z,16.65
2022-07-26T21:12:02.774Z,16.63
2022-07-26T21:14:35.146Z,16.62
2022-07-26T21:17:11.569Z,16.59
2022-07-26T21:19:44.477Z,16.56
2022-07-26T21:22:16.541Z,16.53
2022-07-26T21:24:50.298Z,16.51
2022-07-26T21:27:22.725Z,16.47
2022-07-26T21:29:55.235Z,16.42
2022-07-26T21:32:31.695Z,16.38
2022-07-26T21:35:04.768Z,16.36
2022-07-26T21:37:36.881Z,16.34
2022-07-26T21:40:11.252Z,16.32
2022-07-26T21:42:43.508Z,16.29
2022-07-26T21:45:15.582Z,16.26
2022-07-26T21:47:47.909Z,16.24
2022-07-26T21:50:20.394Z,16.21
2022-07-26T21:52:53.156Z,16.19
2022-07-26T21:55:25.485Z,16.15
2022-07-26T21:57:58.148Z,16.11
2022-07-26T22:00:31.162Z,16.08
2022-07-26T22:03:04.742Z,16.05
2022-07-26T22:05:42.756Z,16.02
2022-07-26T22:08:17.372Z,15.99
2022-07-26T22:10:50.325Z,15.97
2022-07-26T22:13:23.215Z,15.94
2022-07-26T22:15:55.458Z,15.92
2022-07-26T22:18:27.990Z,15.89
2022-07-26T22:21:01.180Z,15.87
2022-07-26T22:23:34.064Z,15.86
2022-07-26T22:26:08.144Z,15.82
2022-07-26T22:28:40.750Z,15.79
2022-07-26T22:31:13.203Z,15.76
2022-07-26T22:33:46.662Z,15.75
2022-07-26T22:36:19.378Z,15.73
2022-07-26T22:38:51.895Z,15.71
2022-07-26T22:41:24.658Z,15.69
2022-07-26T22:43:57.241Z,15.67
2022-07-26T22:46:29.816Z,15.64
2022-07-26T22:49:03.553Z,15.62
2022-07-26T22:51:35.782Z,15.59
2022-07-26T22:54:09.546Z,15.57
2022-07-26T22:56:42.506Z,15.55
2022-07-26T22:59:15.236Z,15.52
2022-07-26T23:01:47.667Z,15.49
2022-07-26T23:04:19.729Z,15.47
2022-07-26T23:06:54.921Z,15.45
2022-07-26T23:09:27.290Z,15.45
2022-07-26T23:12:01.007Z,15.44
2022-07-26T23:14:33.159Z,15.42
2022-07-26T23:17:06.111Z,15.40
2022-07-26T23:19:38.812Z,15.39
2022-07-26T23:22:11.920Z,15.39
2022-07-26T23:24:47.404Z,15.38
2022-07-26T23:27:20.255Z,15.37
2022-07-26T23:29:52.540Z,15.37
2022-07-26T23:32:25.122Z,15.34
2022-07-26T23:34:57.158Z,15.32
2022-07-26T23:37:29.586Z,15.30
2022-07-26T23:40:01.844Z,15.27
2022-07-26T23:42:34.700Z,15.26
2022-07-26T23:45:09.758Z,15.23
2022-07-26T23:47:42.143Z,15.22
2022-07-26T23:50:14.605Z,15.21
2022-07-26T23:52:47.359Z,15.18
2022-07-26T23:55:19.856Z,15.16
2022-07-26T23:57:51.733Z,15.15
